createdAt,value
2022-12-01T00:03:50.541Z,101875.40
2022-12-01T00:09:18.020Z,101870.20
2022-12-01T00:14:22.953Z,101868.60
2022-12-01T00:19:27.474Z,101870.80
2022-12-01T00:24:30.614Z,101879.00
2022-12-01T00:29:33.507Z,101883.20
2022-12-01T00:34:38.043Z,101877.60
2022-12-01T00:39:40.997Z,101876.80
2022-12-01T00:44:44.864Z,101874.60
2022-12-01T00:49:48.407Z,101876.40
2022-12-01T00:54:51.606Z,101869.80
2022-12-01T00:59:54.587Z,101863.00
2022-12-01T01:04:57.577Z,101862.40
2022-12-01T01:10:00.555Z,101860.00
2022-12-01T01:15:04.648Z,101863.20
2022-12-01T01:20:08.596Z,101861.20
2022-12-01T01:25:11.620Z,101853.00
2022-12-01T01:30:15.722Z,101860.60
2022-12-01T01:35:18.639Z,101853.20
2022-12-01T01:40:21.804Z,101849.40
2022-12-01T01:45:29.907Z,101842.60
2022-12-01T01:50:32.836Z,101854.20
2022-12-01T01:55:36.950Z,101847.40
2022-12-01T02:00:43.799Z,101843.80
2022-12-01T02:05:47.014Z,101836.20
2022-12-01T02:11:28.147Z,101838.80
2022-12-01T02:17:20.936Z,101838.80
2022-12-01T02:23:14.780Z,101840.00
2022-12-01T02:28:44.938Z,101835.60
2022-12-01T02:34:18.113Z,101838.00
2022-12-01T02:39:42.618Z,101846.80
2022-12-01T02:44:47.770Z,101854.40
2022-12-01T02:49:53.020Z,101849.60
2022-12-01T02:54:57.304Z,101844.20
2022-12-01T03:00:01.311Z,101848.60
2022-12-01T03:05:12.777Z,101849.20
2022-12-01T03:10:34.063Z,101844.20
2022-12-01T03:15:53.524Z,101848.60
2022-12-01T03:21:10.071Z,101843.80
2022-12-01T03:26:21.008Z,101842.40
2022-12-01T03:31:33.052Z,101835.20
2022-12-01T03:36:56.708Z,101840.00
2022-12-01T03:42:33.009Z,101848.20
2022-12-01T03:47:37.886Z,101854.00
2022-12-01T03:53:03.581Z,101850.20
2022-12-01T03:58:17.210Z,101851.20
2022-12-01T04:03:25.767Z,101854.00
2022-12-01T04:08:30.869Z,101854.40
2022-12-01T04:13:33.872Z,101854.00
2022-12-01T04:18:36.876Z,101850.40
2022-12-01T04:23:58.452Z,101846.20
2022-12-01T04:29:07.685Z,101844.60
2022-12-01T04:34:11.572Z,101841.20
2022-12-01T04:39:14.519Z,101841.20
2022-12-01T04:44:17.780Z,101840.80
2022-12-01T04:49:21.969Z,101840.20
2022-12-01T04:54:26.748Z,101845.20
2022-12-01T04:59:29.797Z,101847.80
2022-12-01T05:04:34.219Z,101846.00
2022-12-01T05:09:37.298Z,101851.80
2022-12-01T05:14:40.153Z,101849.00
2022-12-01T05:20:01.630Z,101848.60
2022-12-01T05:25:04.905Z,101849.80
2022-12-01T05:30:08.869Z,101851.80
2022-12-01T05:35:11.833Z,101852.40
2022-12-01T05:40:14.757Z,101852.40
2022-12-01T05:45:17.755Z,101859.80
2022-12-01T05:50:20.702Z,101863.60
2022-12-01T05:55:23.737Z,101857.60
2022-12-01T06:00:26.936Z,101861.80
2022-12-01T06:05:29.996Z,101866.80
2022-12-01T06:10:33.142Z,101858.20
2022-12-01T06:15:36.139Z,101862.20
2022-12-01T06:20:39.299Z,101862.40
2022-12-01T06:25:42.250Z,101866.20
2022-12-01T06:30:45.994Z,101868.80
2022-12-01T06:35:48.891Z,101873.40
2022-12-01T06:40:51.860Z,101871.80
2022-12-01T06:46:00.801Z,101876.00
2022-12-01T06:51:04.610Z,101874.00
2022-12-01T06:56:07.890Z,101875.80
2022-12-01T07:01:13.121Z,101865.00
2022-12-01T07:06:17.647Z,101860.40
2022-12-01T07:11:20.585Z,101861.20
2022-12-01T07:16:23.658Z,101870.40
2022-12-01T07:21:26.723Z,101873.20
2022-12-01T07:26:29.636Z,101876.20
2022-12-01T07:31:33.144Z,101873.80
2022-12-01T07:36:36.042Z,101879.20
2022-12-01T07:41:39.037Z,101885.40
2022-12-01T07:46:42.107Z,101880.20
2022-12-01T07:51:45.087Z,101878.20
2022-12-01T07:56:48.034Z,101875.00
2022-12-01T08:01:51.132Z,101882.20
2022-12-01T08:06:54.358Z,101874.20
2022-12-01T08:11:57.354Z,101879.40
2022-12-01T08:17:00.431Z,101876.80
2022-12-01T08:22:03.624Z,101878.40
2022-12-01T08:27:06.635Z,101882.20
2022-12-01T08:32:09.557Z,101875.80
2022-12-01T08:37:12.471Z,101881.40
2022-12-01T08:42:15.711Z,101876.80
2022-12-01T08:47:19.295Z,101879.60
2022-12-01T08:52:22.370Z,101880.40
2022-12-01T08:57:25.388Z,101884.20
2022-12-01T09:02:28.531Z,101884.60
2022-12-01T09:07:33.360Z,101887.80
2022-12-01T09:12:36.429Z,101884.60
2022-12-01T09:17:39.385Z,101884.20
2022-12-01T09:22:42.422Z,101882.40
2022-12-01T09:27:45.608Z,101877.60
2022-12-01T09:32:48.669Z,101873.80
2022-12-01T09:37:51.777Z,101869.40
2022-12-01T09:42:55.764Z,101860.00
2022-12-01T09:48:03.254Z,101859.60
2022-12-01T09:53:19.511Z,101855.40
2022-12-01T09:58:30.888Z,101850.40
2022-12-01T10:03:48.809Z,101844.40
2022-12-01T10:09:18.376Z,101853.80
2022-12-01T10:14:22.430Z,101851.60
2022-12-01T10:19:37.872Z,101843.00
2022-12-01T10:25:05.839Z,101844.60
2022-12-01T10:30:10.578Z,101850.00
2022-12-01T10:35:18.538Z,101838.00
2022-12-01T10:40:23.753Z,101833.60
2022-12-01T10:45:31.789Z,101834.80
2022-12-01T10:50:35.986Z,101835.60
2022-12-01T10:55:44.859Z,101835.60
2022-12-01T11:01:04.395Z,101836.20
2022-12-01T11:06:08.834Z,101837.40
2022-12-01T11:11:40.707Z,101833.00
2022-12-01T11:16:48.156Z,101834.80
2022-12-01T11:21:57.746Z,101825.20
2022-12-01T11:27:01.338Z,101825.00
2022-12-01T11:32:20.402Z,101825.60
2022-12-01T11:37:50.546Z,101820.00
2022-12-01T11:43:06.251Z,101815.00
2022-12-01T11:48:12.588Z,101814.60
2022-12-01T11:53:43.956Z,101812.60
2022-12-01T11:58:52.468Z,101812.40
2022-12-01T12:04:14.163Z,101810.40
2022-12-01T12:09:17.641Z,101806.60
2022-12-01T12:15:19.960Z,101804.40
2022-12-01T12:20:47.500Z,101800.20
2022-12-01T12:26:18.485Z,101804.00
2022-12-01T12:31:40.218Z,101796.40
2022-12-01T12:37:07.460Z,101798.60
2022-12-01T12:42:29.908Z,101790.20
2022-12-01T12:47:51.958Z,101787.80
2022-12-01T12:53:09.733Z,101782.40
2022-12-01T12:58:36.498Z,101785.00
2022-12-01T13:04:08.162Z,101771.80
2022-12-01T13:09:46.714Z,101771.40
2022-12-01T13:15:01.612Z,101767.60
2022-12-01T13:20:07.346Z,101765.00
2022-12-01T13:25:22.948Z,101763.00
2022-12-01T13:30:27.291Z,101763.00
2022-12-01T13:35:36.173Z,101764.80
2022-12-01T13:40:39.743Z,101764.40
2022-12-01T13:45:42.847Z,101761.00
2022-12-01T13:50:48.297Z,101764.00
2022-12-01T13:56:03.288Z,101770.20
2022-12-01T14:01:22.715Z,101771.20
2022-12-01T14:06:49.669Z,101764.00
2022-12-01T14:12:11.203Z,101759.60
2022-12-01T14:17:37.970Z,101766.00
2022-12-01T14:22:46.173Z,101765.20
2022-12-01T14:27:56.787Z,101756.60
2022-12-01T14:34:04.152Z,101759.80
2022-12-01T14:39:18.967Z,101749.20
2022-12-01T14:44:55.031Z,101744.80
2022-12-01T14:50:28.463Z,101751.20
2022-12-01T14:55:42.301Z,101747.00
2022-12-01T15:01:13.433Z,101745.20
2022-12-01T15:06:20.178Z,101743.60
2022-12-01T15:11:26.939Z,101742.20
2022-12-01T15:16:32.425Z,101740.00
2022-12-01T15:21:38.183Z,101739.60
2022-12-01T15:26:49.602Z,101732.00
2022-12-01T15:31:59.919Z,101733.20
2022-12-01T15:37:13.592Z,101735.40
2022-12-01T15:42:27.807Z,101743.40
2022-12-01T15:47:47.151Z,101740.80
2022-12-01T15:52:50.468Z,101734.20
2022-12-01T15:57:54.710Z,101733.20
2022-12-01T16:03:00.099Z,101733.80
2022-12-01T16:08:27.980Z,101727.60
2022-12-01T16:13:48.100Z,101735.00
2022-12-01T16:18:59.654Z,101733.80
2022-12-01T16:24:06.134Z,101728.60
2022-12-01T16:29:22.802Z,101734.20
2022-12-01T16:34:45.355Z,101738.40
2022-12-01T16:39:50.637Z,101737.00
2022-12-01T16:44:53.868Z,101741.60
2022-12-01T16:49:57.054Z,101742.80
2022-12-01T16:55:00.106Z,101741.00
2022-12-01T17:00:03.695Z,101740.80
2022-12-01T17:05:07.294Z,101738.20
2022-12-01T17:10:11.350Z,101745.00
2022-12-01T17:15:14.408Z,101752.00
2022-12-01T17:20:17.564Z,101749.40
2022-12-01T17:25:20.494Z,101745.20
2022-12-01T17:30:24.024Z,101741.80
2022-12-01T17:35:27.006Z,101738.20
2022-12-01T17:40:29.923Z,101733.60
2022-12-01T17:45:32.924Z,101726.60
2022-12-01T17:50:35.905Z,101725.40
2022-12-01T17:55:41.929Z,101725.80
2022-12-01T18:00:44.908Z,101728.40
2022-12-01T18:06:02.355Z,101730.20
2022-12-01T19:37:23.646Z,101727.60
2022-12-01T19:42:26.564Z,101723.60
2022-12-01T19:47:34.362Z,101722.80
2022-12-01T19:52:37.347Z,101721.80
2022-12-01T19:57:40.540Z,101723.60
2022-12-01T20:02:43.550Z,101719.80
2022-12-01T20:07:47.864Z,101721.40
2022-12-01T20:12:51.088Z,101727.20
2022-12-01T20:17:54.087Z,101730.80
2022-12-01T20:22:57.878Z,101732.40
2022-12-01T20:28:01.454Z,101728.80
2022-12-01T20:33:04.391Z,101720.20
2022-12-01T20:38:07.325Z,101718.40
2022-12-01T20:43:10.339Z,101720.40
2022-12-01T20:48:13.797Z,101727.20
2022-12-01T20:53:16.741Z,101726.20
2022-12-01T20:58:19.743Z,101728.40
2022-12-01T21:03:22.656Z,101730.00
2022-12-01T21:08:25.634Z,101729.80
2022-12-01T21:13:42.188Z,101733.20
2022-12-01T21:18:52.935Z,101739.00
2022-12-01T21:24:08.232Z,101738.60
2022-12-01T21:29:20.764Z,101741.60
2022-12-01T21:34:26.887Z,101741.60
2022-12-01T21:39:30.534Z,101733.00
2022-12-01T21:44:37.774Z,101739.00
2022-12-01T21:49:41.013Z,101734.40
2022-12-01T21:54:44.044Z,101733.80
2022-12-01T21:59:48.097Z,101738.60
2022-12-01T22:04:51.171Z,101740.20
2022-12-01T22:09:54.408Z,101733.20
2022-12-01T22:15:01.620Z,101730.20
2022-12-01T22:20:22.546Z,101728.40
2022-12-01T22:25:27.684Z,101731.20
2022-12-01T22:30:30.583Z,101730.80
2022-12-01T22:35:44.974Z,101731.20
2022-12-01T22:41:00.377Z,101727.20
2022-12-01T22:46:17.627Z,101726.60
2022-12-01T22:51:20.490Z,101724.40
2022-12-01T22:56:34.000Z,101716.60
2022-12-01T23:01:43.645Z,101709.00
2022-12-01T23:06:57.189Z,101710.40
2022-12-01T23:12:28.733Z,101707.80
2022-12-01T23:17:35.603Z,101709.20
2022-12-01T23:22:39.035Z,101709.40
2022-12-01T23:27:43.281Z,101702.40
2022-12-01T23:33:13.438Z,101705.20
2022-12-01T23:38:25.227Z,101704.00
2022-12-01T23:43:34.807Z,101704.40
2022-12-01T23:48:47.913Z,101700.00
2022-12-01T23:53:53.058Z,101697.60
2022-12-01T23:59:00.357Z,101696.40
